Time;durP1;ratioP1;P1;durP2;ratioP2;P2;SDS_P1;SDS_P2;PMS_P1;PMS_P2;Temp;Humidity;BMP_temperature;BMP_pressure;BME280_temperature;BME280_humidity;BME280_pressure;Samples;Min_cycle;Max_cycle;Signal;HPM_P1;HPM_P2
2022/08/21 00:03:27;;;;;;;8.05;2.70;;;;;;;18.73;53.07;101574.47;10638436;27;20042;-73
2022/08/21 00:08:29;;;;;;;6.15;2.50;;;;;;;18.57;53.93;101575.94;10659679;27;20065;-74
2022/08/21 00:13:32;;;;;;;7.82;2.50;;;;;;;18.43;53.91;101569.59;10659245;27;20043;-74
2022/08/21 00:18:34;;;;;;;7.80;3.13;;;;;;;18.33;54.28;101571.44;10619731;27;20048;-74
2022/08/21 00:23:37;;;;;;;3.85;2.75;;;;;;;18.34;54.42;101569.50;10556029;28;20051;-73
2022/08/21 00:28:39;;;;;;;6.97;3.20;;;;;;;18.43;54.37;101569.59;10572514;28;20036;-74
2022/08/21 00:33:41;;;;;;;8.65;3.28;;;;;;;18.28;54.57;101563.22;10572642;28;20059;-74
2022/08/21 00:38:44;;;;;;;6.88;3.65;;;;;;;18.28;54.91;101562.41;10600320;27;20042;-73
2022/08/21 00:43:46;;;;;;;5.00;3.33;;;;;;;18.13;55.11;101566.31;10658904;27;20070;-73
2022/08/21 00:48:48;;;;;;;4.68;3.67;;;;;;;17.95;55.65;101559.75;10622766;27;20048;-73
2022/08/21 00:53:59;;;;;;;6.65;3.30;;;;;;;17.89;55.71;101552.66;10615236;27;20059;-73
2022/08/21 00:59:02;;;;;;;6.82;3.67;;;;;;;17.82;55.90;101560.56;10576701;28;20043;-73
2022/08/21 01:04:04;;;;;;;9.77;3.80;;;;;;;17.78;56.60;101573.41;10614780;28;20490;-73
2022/08/21 01:09:07;;;;;;;11.68;4.50;;;;;;;17.61;56.41;101565.66;10613701;28;20505;-73
2022/08/21 01:14:11;;;;;;;5.45;3.60;;;;;;;17.51;56.82;101570.56;10596071;28;20051;-73
2022/08/21 01:19:14;;;;;;;6.82;4.05;;;;;;;17.55;56.70;101563.28;10596348;28;20047;-73
2022/08/21 01:24:17;;;;;;;7.07;3.92;;;;;;;17.45;56.90;101572.59;10596010;28;20050;-73
2022/08/21 01:29:39;;;;;;;6.13;3.95;;;;;;;17.35;57.13;101568.03;10580326;28;20050;-73
2022/08/21 01:34:44;;;;;;;13.82;4.95;;;;;;;17.38;58.29;101558.31;10553400;28;20450;-73
2022/08/21 01:39:47;;;;;;;9.65;4.15;;;;;;;17.48;57.35;101563.66;10614307;27;20046;-73
2022/08/21 01:44:49;;;;;;;13.88;5.97;;;;;;;17.51;57.30;101554.72;10595225;27;20036;-73
2022/08/21 01:49:52;;;;;;;14.13;4.57;;;;;;;17.43;57.18;101552.66;10570717;28;20040;-73
2022/08/21 01:54:54;;;;;;;8.93;3.90;;;;;;;17.28;57.75;101550.97;10570684;28;20040;-73
2022/08/21 01:59:57;;;;;;;10.60;4.55;;;;;;;17.25;57.70;101539.69;10571216;28;20051;-73
2022/08/21 02:04:59;;;;;;;8.82;4.68;;;;;;;17.29;57.98;101530.44;10552641;28;20040;-73
2022/08/21 02:10:01;;;;;;;8.15;4.10;;;;;;;17.12;58.71;101531.00;10570759;28;20048;-73
2022/08/21 02:15:05;;;;;;;8.48;4.55;;;;;;;16.97;59.12;101534.03;10569928;28;20055;-73
2022/08/21 02:20:09;;;;;;;7.35;4.35;;;;;;;16.82;59.56;101535.09;10584868;28;20049;-74
2022/08/21 02:25:11;;;;;;;6.85;3.83;;;;;;;16.75;59.90;101536.59;10612177;28;20453;-73
2022/08/21 02:30:16;;;;;;;7.25;3.90;;;;;;;16.70;60.43;101539.47;10611688;28;20047;-73
2022/08/21 02:35:19;;;;;;;10.23;4.60;;;;;;;16.62;60.24;101542.88;10611290;28;20410;-73
2022/08/21 02:40:23;;;;;;;9.77;4.50;;;;;;;16.57;61.47;101535.47;10611629;28;20039;-73
2022/08/21 02:45:27;;;;;;;12.00;5.13;;;;;;;16.52;61.42;101536.38;10594096;28;20520;-73
2022/08/21 02:50:35;;;;;;;7.28;3.97;;;;;;;16.52;61.47;101533.59;10610534;28;20046;-73
2022/08/21 02:55:37;;;;;;;7.40;4.43;;;;;;;16.51;61.52;101537.50;10620050;28;20046;-73
2022/08/21 03:00:40;;;;;;;10.10;4.82;;;;;;;16.71;61.82;101541.13;10619140;28;20497;-73
2022/08/21 03:05:43;;;;;;;9.73;4.57;;;;;;;16.90;61.27;101543.88;10620228;28;20047;-73
2022/08/21 03:10:48;;;;;;;10.23;4.75;;;;;;;16.82;61.23;101537.88;10573457;28;20517;-74
2022/08/21 03:15:50;;;;;;;9.27;5.10;;;;;;;16.83;61.97;101539.53;10577018;28;20067;-74
2022/08/21 03:20:52;;;;;;;6.13;4.43;;;;;;;16.93;61.85;101533.00;10581175;28;20039;-74
2022/08/21 03:25:55;;;;;;;9.10;5.50;;;;;;;16.95;61.30;101533.50;10587631;28;20410;-74
2022/08/21 03:30:57;;;;;;;8.57;4.90;;;;;;;16.80;61.87;101528.19;10588162;27;20413;-73
2022/08/21 03:36:04;;;;;;;8.68;5.07;;;;;;;16.67;61.92;101527.03;10617311;28;20077;-74
2022/08/21 03:41:07;;;;;;;;;;;;;;;16.70;62.43;101522.84;10618779;28;20039;-73
2022/08/21 03:46:09;;;;;;;13.23;5.60;;;;;;;16.68;62.50;101525.09;10591367;28;19919;-73
2022/08/21 03:51:12;;;;;;;7.47;3.80;;;;;;;16.86;62.25;101538.09;10599590;28;20043;-74
2022/08/21 03:56:16;;;;;;;10.80;4.93;;;;;;;16.82;62.71;101528.72;10597821;28;20036;-74
2022/08/21 04:01:18;;;;;;;7.90;4.45;;;;;;;16.76;62.53;101518.84;10608064;28;20039;-73
2022/08/21 04:06:21;;;;;;;7.47;5.15;;;;;;;16.76;63.16;101529.94;10595288;28;20047;-74
2022/08/21 04:11:23;;;;;;;7.93;4.63;;;;;;;16.95;63.05;101532.69;10616258;28;20039;-74
2022/08/21 04:16:25;;;;;;;10.35;5.65;;;;;;;17.56;61.92;101524.13;10569871;28;20046;-74
2022/08/21 04:21:27;;;;;;;11.95;5.78;;;;;;;18.15;60.62;101525.16;10616089;28;20043;-72
2022/08/21 04:26:30;;;;;;;8.38;5.40;;;;;;;18.49;59.70;101508.00;10596293;28;20035;-73
2022/08/21 04:31:34;;;;;;;9.85;5.57;;;;;;;18.91;58.64;101514.25;10573926;28;20413;-72
2022/08/21 04:36:36;;;;;;;6.85;5.20;;;;;;;19.42;57.48;101508.19;10601547;28;20125;-72
2022/08/21 04:41:39;;;;;;;8.52;5.78;;;;;;;19.76;56.44;101523.44;10616516;28;20047;-72
2022/08/21 04:46:41;;;;;;;11.10;5.32;;;;;;;19.97;56.01;101516.19;10615129;28;20043;-73
2022/08/21 04:51:43;;;;;;;7.38;5.10;;;;;;;20.40;55.43;101504.28;10611777;28;20040;-72
2022/08/21 04:56:53;;;;;;;9.20;5.95;;;;;;;20.49;54.64;101507.94;10587836;28;20052;-74
2022/08/21 05:01:57;;;;;;;9.43;5.32;;;;;;;20.41;54.95;101506.78;10576795;28;20055;-72
2022/08/21 05:07:01;;;;;;;9.55;5.45;;;;;;;20.34;55.05;101514.78;10574283;28;20040;-72
2022/08/21 05:12:03;;;;;;;6.88;4.72;;;;;;;20.97;54.95;101506.91;10571873;28;20059;-72
2022/08/21 05:17:05;;;;;;;7.20;5.00;;;;;;;21.17;53.92;101500.63;10597978;28;20528;-72
2022/08/21 05:22:09;;;;;;;8.65;5.20;;;;;;;21.34;53.62;101511.78;10614884;28;20043;-72
2022/08/21 05:27:11;;;;;;;10.00;4.68;;;;;;;21.59;53.66;101498.09;10610334;28;20673;-72
2022/08/21 05:32:14;;;;;;;7.70;4.68;;;;;;;22.04;51.84;101498.38;10613419;28;20051;-72
2022/08/21 05:37:16;;;;;;;9.93;5.40;;;;;;;22.14;51.93;101505.56;10591654;28;20047;-72
2022/08/21 05:42:19;;;;;;;7.95;4.80;;;;;;;22.29;52.11;101485.41;10584113;28;20050;-72
2022/08/21 05:47:21;;;;;;;10.52;4.72;;;;;;;22.80;50.50;101491.72;10573774;28;20056;-72
2022/08/21 05:52:23;;;;;;;6.22;4.72;;;;;;;23.14;49.43;101488.63;10572100;28;20047;-72
2022/08/21 05:57:26;;;;;;;7.63;4.35;;;;;;;23.20;49.07;101485.59;10592019;28;20493;-72
2022/08/21 06:02:28;;;;;;;13.13;4.97;;;;;;;22.95;50.11;101482.72;10612831;28;20043;-74
2022/08/21 06:07:30;;;;;;;7.63;5.18;;;;;;;22.43;50.64;101488.75;10608256;28;20520;-73
2022/08/21 06:12:32;;;;;;;12.65;5.18;;;;;;;21.90;52.18;101490.22;10612170;28;20051;-73
2022/08/21 06:17:35;;;;;;;9.15;4.63;;;;;;;21.64;52.74;101475.56;10605179;28;20055;-73
2022/08/21 06:22:37;;;;;;;7.25;4.85;;;;;;;21.74;52.94;101480.78;10612557;28;20047;-73
2022/08/21 06:27:39;;;;;;;11.15;5.22;;;;;;;21.53;53.24;101475.13;10590457;28;20027;-73
2022/08/21 06:32:41;;;;;;;9.85;4.80;;;;;;;21.14;53.94;101473.41;10600124;28;20445;-73
2022/08/21 06:37:44;;;;;;;8.98;4.70;;;;;;;20.71;55.18;101471.50;10571683;28;20044;-73
2022/08/21 06:42:46;;;;;;;9.15;3.85;;;;;;;20.12;56.08;101462.75;10610782;28;20039;-72
2022/08/21 06:47:49;;;;;;;9.95;5.15;;;;;;;19.71;57.33;101459.56;10609031;28;20047;-73
2022/08/21 06:52:59;;;;;;;8.40;4.47;;;;;;;19.31;58.58;101462.31;10574073;28;20040;-72
2022/08/21 06:58:01;;;;;;;7.75;4.60;;;;;;;19.24;59.27;101464.72;10573831;28;20036;-72
2022/08/21 07:03:03;;;;;;;11.10;4.40;;;;;;;18.95;60.18;101454.09;10610849;28;20054;-72
2022/08/21 07:08:06;;;;;;;8.20;4.70;;;;;;;18.70;61.28;101444.44;10596761;28;20031;-73
2022/08/21 07:13:08;;;;;;;10.50;4.70;;;;;;;18.49;61.80;101437.72;10610874;28;20386;-72
2022/08/21 07:18:11;;;;;;;7.47;4.53;;;;;;;18.33;62.28;101432.50;10589887;28;20047;-72
2022/08/21 07:23:27;;;;;;;13.32;4.65;;;;;;;18.20;63.05;101427.00;10569314;28;20506;-74
2022/08/21 07:28:30;;;;;;;7.10;4.63;;;;;;;18.10;63.96;101418.91;10575914;28;20036;-74
2022/08/21 07:33:33;;;;;;;9.70;4.70;;;;;;;18.16;64.29;101426.81;10584175;28;20055;-73
2022/08/21 07:38:36;;;;;;;8.75;4.60;;;;;;;18.12;64.27;101408.31;10535989;28;20058;-73
2022/08/21 07:43:38;;;;;;;6.00;3.03;;;;;;;18.15;64.38;101405.72;10583651;27;20031;-73
2022/08/21 07:48:41;;;;;;;6.75;3.80;;;;;;;18.12;64.23;101409.13;10602861;28;20036;-75
2022/08/21 07:53:52;;;;;;;6.93;4.50;;;;;;;18.05;64.77;101397.63;10615829;28;20074;-74
2022/08/21 07:58:55;;;;;;;10.27;5.40;;;;;;;18.03;64.96;101399.88;10604806;28;20048;-74
2022/08/21 08:03:57;;;;;;;10.88;5.57;;;;;;;18.08;65.02;101397.84;10651424;27;20075;-74
2022/08/21 08:09:03;;;;;;;6.25;4.05;;;;;;;18.21;65.16;101406.41;10615881;28;20072;-74
2022/08/21 08:14:05;;;;;;;7.95;5.15;;;;;;;18.35;65.01;101388.56;10609648;27;20473;-75
2022/08/21 08:19:08;;;;;;;9.90;5.53;;;;;;;18.74;64.74;101391.78;10578577;28;20051;-75
2022/08/21 08:24:10;;;;;;;10.05;6.60;;;;;;;18.84;63.92;101392.34;10605911;28;20567;-74
2022/08/21 08:29:12;;;;;;;11.27;5.53;;;;;;;18.90;63.67;101379.13;10610925;28;20502;-75
2022/08/21 08:34:14;;;;;;;12.75;5.50;;;;;;;19.15;63.04;101374.84;10580969;28;20047;-75
2022/08/21 08:39:16;;;;;;;9.75;4.93;;;;;;;19.15;63.28;101383.19;10580436;28;20493;-75
2022/08/21 08:44:19;;;;;;;8.70;5.90;;;;;;;19.39;62.93;101366.06;10612097;28;20044;-75
2022/08/21 08:49:30;;;;;;;8.23;4.80;;;;;;;19.99;61.86;101359.84;10596379;28;20607;-75
2022/08/21 08:54:48;;;;;;;11.52;5.82;;;;;;;20.54;59.97;101364.75;10584964;28;20036;-75
2022/08/21 08:59:54;;;;;;;10.18;5.53;;;;;;;20.58;60.31;101360.97;10600919;28;20055;-73
2022/08/21 09:04:58;;;;;;;10.07;5.18;;;;;;;20.75;58.92;101349.75;10593451;28;20051;-74
2022/08/21 09:10:17;;;;;;;8.73;5.68;;;;;;;21.03;58.04;101347.38;10578631;28;20512;-74
2022/08/21 09:15:42;;;;;;;7.28;4.68;;;;;;;21.39;57.61;101346.09;10570324;28;20031;-74
2022/08/21 09:21:04;;;;;;;11.70;4.78;;;;;;;21.47;57.34;101339.63;10591831;28;20047;-74
2022/08/21 09:26:13;;;;;;;9.63;4.85;;;;;;;21.46;56.78;101337.16;10623521;27;20541;-77
2022/08/21 09:31:32;;;;;;;11.95;5.88;;;;;;;21.51;56.71;101340.56;10601130;28;20705;-74
2022/08/21 09:36:45;;;;;;;12.35;5.50;;;;;;;21.56;56.81;101336.78;10591199;28;20039;-74
2022/08/21 09:41:58;;;;;;;12.25;5.38;;;;;;;21.54;56.85;101336.31;10590277;28;20043;-74
2022/08/21 09:47:01;;;;;;;11.07;6.25;;;;;;;21.26;56.99;101336.78;10590485;28;20036;-74
2022/08/21 09:52:14;;;;;;;9.45;5.45;;;;;;;21.10;57.58;101327.31;10604273;28;20035;-75
2022/08/21 09:57:39;;;;;;;8.10;5.15;;;;;;;21.11;57.50;101323.38;10590070;27;20043;-77
2022/08/21 10:02:41;;;;;;;12.18;5.72;;;;;;;21.13;57.63;101306.28;10603873;28;20051;-75
2022/08/21 10:07:45;;;;;;;9.18;5.13;;;;;;;21.08;58.08;101321.25;10589807;28;20040;-76
2022/08/21 10:13:14;;;;;;;10.02;5.72;;;;;;;20.99;58.56;101310.09;10591925;28;20039;-75
2022/08/21 10:18:54;;;;;;;7.45;5.47;;;;;;;21.03;57.85;101311.09;10590051;28;20516;-75
2022/08/21 10:24:08;;;;;;;13.20;5.32;;;;;;;21.14;57.55;101303.16;10576796;28;20036;-74
2022/08/21 10:29:16;;;;;;;6.88;5.43;;;;;;;21.23;57.69;101309.53;10608607;28;20516;-74
2022/08/21 10:34:37;;;;;;;10.95;5.38;;;;;;;21.23;57.87;101314.28;10609257;28;20039;-75
2022/08/21 10:40:16;;;;;;;8.70;5.88;;;;;;;21.27;57.34;101304.09;10591207;28;20421;-75
2022/08/21 10:45:18;;;;;;;10.27;5.75;;;;;;;21.34;57.93;101302.41;10525943;28;20051;-75
2022/08/21 10:50:47;;;;;;;10.52;6.07;;;;;;;21.46;57.26;101306.44;10607997;28;20051;-75
2022/08/21 10:55:59;;;;;;;8.25;6.28;;;;;;;21.38;57.75;101304.53;10580477;28;20059;-75
2022/08/21 11:01:11;;;;;;;7.18;5.47;;;;;;;21.31;58.37;101305.88;10580373;28;20031;-75
2022/08/21 11:06:13;;;;;;;7.25;5.35;;;;;;;21.34;57.61;101287.63;10591100;28;20039;-75
2022/08/21 11:11:22;;;;;;;8.48;4.60;;;;;;;21.42;58.00;101294.31;10608950;28;20109;-76
2022/08/21 11:16:41;;;;;;;7.07;5.03;;;;;;;21.25;58.47;101287.69;10595929;28;20055;-75
2022/08/21 11:22:15;;;;;;;9.82;5.07;;;;;;;21.33;58.74;101286.81;10608954;28;20036;-75
2022/08/21 11:27:44;;;;;;;7.75;5.70;;;;;;;21.45;58.58;101285.28;10616651;28;20043;-74
2022/08/21 11:32:55;;;;;;;6.80;4.90;;;;;;;21.60;58.67;101285.47;10614710;28;20039;-75
2022/08/21 11:37:58;;;;;;;11.20;5.82;;;;;;;21.61;57.91;101280.72;10612503;28;20042;-74
2022/08/21 11:43:03;;;;;;;9.57;5.38;;;;;;;21.58;57.76;101281.41;10611930;28;20047;-74
2022/08/21 11:48:23;;;;;;;8.18;5.30;;;;;;;21.40;59.28;101283.50;10553183;28;20035;-74
2022/08/21 11:53:38;;;;;;;9.77;5.10;;;;;;;21.39;59.69;101279.06;10603926;28;20072;-74
2022/08/21 11:58:44;;;;;;;9.52;5.20;;;;;;;21.39;59.37;101275.47;10611896;28;20063;-73
2022/08/21 12:04:06;;;;;;;12.60;5.03;;;;;;;21.31;60.06;101271.56;10616349;28;20040;-74
2022/08/21 12:09:31;;;;;;;5.28;4.35;;;;;;;21.25;60.30;101267.34;10582662;28;20420;-74
2022/08/21 12:14:45;;;;;;;13.43;5.25;;;;;;;21.29;60.53;101279.44;10597269;28;20055;-74
2022/08/21 12:20:14;;;;;;;6.90;4.82;;;;;;;21.25;60.47;101262.56;10604839;27;20048;-76
2022/08/21 12:25:18;;;;;;;6.75;4.07;;;;;;;21.31;61.17;101249.22;10573111;28;20032;-76
2022/08/21 12:30:34;;;;;;;6.70;5.18;;;;;;;21.35;60.60;101266.97;10591210;28;20039;-76
2022/08/21 12:35:40;;;;;;;6.72;4.55;;;;;;;21.34;60.45;101268.91;10578258;28;20047;-72
2022/08/21 12:40:47;;;;;;;11.68;5.20;;;;;;;21.42;60.29;101263.63;10604565;27;20409;-73
2022/08/21 12:45:50;;;;;;;11.27;5.63;;;;;;;21.54;60.26;101258.13;10596263;28;20052;-75
2022/08/21 12:50:57;;;;;;;7.07;4.43;;;;;;;21.65;60.13;101270.50;10579323;27;20055;-73
2022/08/21 12:56:04;;;;;;;5.88;4.00;;;;;;;21.65;59.57;101260.13;10580164;27;20058;-73
2022/08/21 13:01:25;;;;;;;7.68;4.32;;;;;;;21.67;58.89;101260.59;10585981;27;20056;-73
2022/08/21 13:06:29;;;;;;;10.98;4.65;;;;;;;21.70;59.56;101264.72;10595630;28;20429;-73
2022/08/21 13:11:32;;;;;;;7.20;4.03;;;;;;;21.73;58.64;101266.81;10614579;28;20445;-73
2022/08/21 13:16:34;;;;;;;6.70;3.88;;;;;;;21.81;58.27;101246.38;10593903;28;20047;-73
2022/08/21 13:21:41;;;;;;;9.05;3.88;;;;;;;21.91;57.80;101239.56;10602695;28;20031;-73
2022/08/21 13:26:44;;;;;;;9.27;3.97;;;;;;;21.97;57.60;101250.16;10595464;28;20043;-73
2022/08/21 13:31:53;;;;;;;5.05;3.83;;;;;;;22.05;57.76;101236.50;10613611;28;20054;-73
2022/08/21 13:36:59;;;;;;;10.73;3.78;;;;;;;22.25;57.91;101236.44;10612560;28;20453;-72
2022/08/21 13:42:05;;;;;;;9.15;3.78;;;;;;;22.38;57.09;101228.06;10595500;28;20040;-73
2022/08/21 13:47:10;;;;;;;5.53;4.10;;;;;;;22.44;57.02;101230.28;10613459;28;20052;-73
2022/08/21 13:52:25;;;;;;;6.95;3.25;;;;;;;22.48;57.17;101227.63;10577900;28;20047;-73
2022/08/21 13:57:33;;;;;;;6.75;4.28;;;;;;;22.47;57.86;101223.19;10594711;28;20036;-73
2022/08/21 14:02:39;;;;;;;6.22;3.80;;;;;;;22.40;58.64;101214.56;10613140;28;20054;-72
2022/08/21 14:07:42;;;;;;;6.43;3.90;;;;;;;22.33;59.05;101223.50;10593531;28;20044;-73
2022/08/21 14:13:01;;;;;;;7.28;3.70;;;;;;;22.24;59.18;101232.00;10593468;28;20492;-73
2022/08/21 14:18:13;;;;;;;9.48;4.80;;;;;;;22.19;59.60;101231.38;10592289;28;20509;-73
2022/08/21 14:23:25;;;;;;;7.22;3.83;;;;;;;22.14;59.72;101226.03;10611900;28;20040;-73
2022/08/21 14:28:32;;;;;;;7.72;4.50;;;;;;;22.18;60.70;101215.78;10591312;28;20390;-73
2022/08/21 14:33:34;;;;;;;6.73;4.03;;;;;;;22.14;60.95;101210.06;10594368;28;20036;-73
2022/08/21 14:38:39;;;;;;;5.43;3.78;;;;;;;22.12;60.94;101211.59;10611451;28;20055;-73
2022/08/21 14:43:42;;;;;;;8.02;4.32;;;;;;;22.14;61.30;101204.47;10611595;28;20453;-73
2022/08/21 14:48:44;;;;;;;8.73;4.22;;;;;;;22.15;60.91;101202.50;10615343;28;20036;-73
2022/08/21 14:53:47;;;;;;;9.98;4.32;;;;;;;22.19;61.16;101203.44;10619694;28;20063;-73
2022/08/21 14:58:51;;;;;;;10.82;4.47;;;;;;;22.25;60.78;101199.28;10601721;28;20445;-73
2022/08/21 15:03:53;;;;;;;9.05;3.75;;;;;;;22.28;61.30;101201.38;10619081;28;20043;-73
2022/08/21 15:08:55;;;;;;;27.23;4.35;;;;;;;22.34;61.51;101202.75;10619824;28;20047;-73
2022/08/21 15:14:00;;;;;;;5.63;3.47;;;;;;;22.35;62.00;101200.78;10601108;28;20051;-73
2022/08/21 15:19:02;;;;;;;6.63;3.83;;;;;;;22.35;61.29;101198.81;10619133;28;20528;-73
2022/08/21 15:24:05;;;;;;;7.35;3.33;;;;;;;22.37;62.16;101204.06;10602916;28;20043;-73
2022/08/21 15:29:08;;;;;;;5.50;3.05;;;;;;;22.39;61.28;101199.78;10558840;28;20053;-74
2022/08/21 15:34:10;;;;;;;5.63;3.55;;;;;;;22.37;61.03;101210.47;10575968;28;20040;-73
2022/08/21 15:39:12;;;;;;;4.88;3.40;;;;;;;22.35;60.89;101204.41;10576009;28;20047;-73
2022/08/21 15:44:15;;;;;;;7.80;3.55;;;;;;;22.35;60.43;101200.78;10557872;28;20860;-73
2022/08/21 15:49:17;;;;;;;7.30;3.72;;;;;;;22.36;60.67;101194.03;10557643;28;20055;-73
2022/08/21 15:54:19;;;;;;;7.35;3.47;;;;;;;22.34;59.57;101201.94;10575145;28;20052;-73
2022/08/21 15:59:22;;;;;;;6.15;3.50;;;;;;;22.38;59.70;101184.13;10574254;28;20051;-72
2022/08/21 16:04:26;;;;;;;4.43;2.92;;;;;;;22.38;59.20;101180.50;10574047;28;20059;-72
2022/08/21 16:09:29;;;;;;;5.78;3.10;;;;;;;22.39;58.63;101180.19;10557596;28;20043;-72
2022/08/21 16:14:32;;;;;;;4.78;2.85;;;;;;;22.42;58.34;101182.28;10555832;28;20418;-72
2022/08/21 16:19:36;;;;;;;5.22;3.03;;;;;;;22.43;58.50;101177.50;10574755;28;20048;-73
2022/08/21 16:24:38;;;;;;;6.68;3.20;;;;;;;22.43;57.96;101172.72;10574680;28;20040;-72
2022/08/21 16:29:40;;;;;;;5.32;3.35;;;;;;;22.47;57.99;101179.25;10556089;28;20047;-72
2022/08/21 16:34:47;;;;;;;5.85;2.88;;;;;;;22.49;57.44;101176.91;10570116;28;20048;-73
2022/08/21 16:39:52;;;;;;;3.78;2.72;;;;;;;22.50;57.32;101180.53;10573645;28;20048;-73
2022/08/21 16:44:55;;;;;;;5.35;2.72;;;;;;;22.47;57.38;101195.22;10573410;28;20414;-73
2022/08/21 16:49:57;;;;;;;8.30;3.08;;;;;;;22.46;57.05;101190.78;10555871;28;20077;-73
2022/08/21 16:54:59;;;;;;;4.65;3.42;;;;;;;22.42;57.31;101185.09;10555092;28;20039;-73
2022/08/21 17:00:04;;;;;;;6.07;2.97;;;;;;;22.35;58.09;101187.63;10604360;28;20055;-73
2022/08/21 17:05:07;;;;;;;5.70;3.35;;;;;;;22.30;58.67;101195.44;10596232;28;20425;-73
2022/08/21 17:10:11;;;;;;;8.80;3.75;;;;;;;22.21;58.64;101192.72;10576840;28;20078;-74
2022/08/21 17:15:19;;;;;;;6.60;3.72;;;;;;;22.14;59.40;101193.28;10582535;28;20043;-76
2022/08/21 17:20:21;;;;;;;9.82;4.18;;;;;;;22.12;59.39;101195.63;10564261;28;20048;-75
2022/08/21 17:25:24;;;;;;;6.03;3.75;;;;;;;22.11;59.99;101198.78;10609250;28;20054;-75
2022/08/21 17:30:26;;;;;;;6.82;3.50;;;;;;;22.08;59.54;101199.47;10600012;28;20051;-75
2022/08/21 17:35:28;;;;;;;11.90;4.50;;;;;;;22.11;59.31;101195.97;10559712;28;20056;-75
2022/08/21 17:40:31;;;;;;;8.23;3.38;;;;;;;22.10;59.55;101203.53;10588559;27;20024;-76
2022/08/21 17:45:33;;;;;;;7.32;3.72;;;;;;;22.01;60.10;101202.78;10581161;28;20413;-74
2022/08/21 17:50:35;;;;;;;8.75;2.90;;;;;;;21.90;60.50;101205.19;10608868;28;20039;-74
2022/08/21 17:55:37;;;;;;;7.97;4.40;;;;;;;21.91;60.70;101200.44;10580734;28;20052;-74
2022/08/21 18:00:40;;;;;;;10.38;3.75;;;;;;;21.81;60.74;101204.47;10603704;28;20437;-73
2022/08/21 18:05:44;;;;;;;7.18;3.40;;;;;;;21.72;61.16;101200.13;10595269;28;20040;-78
2022/08/21 18:10:48;;;;;;;5.55;3.00;;;;;;;21.63;62.30;101201.00;10586189;28;20040;-74
2022/08/21 18:15:51;;;;;;;5.30;3.50;;;;;;;21.57;61.93;101202.38;10610216;28;20047;-74
2022/08/21 18:20:54;;;;;;;6.93;4.05;;;;;;;21.50;61.99;101206.88;10593858;28;20510;-75
2022/08/21 18:25:57;;;;;;;9.18;3.83;;;;;;;21.40;62.79;101212.88;10612514;28;20532;-74
2022/08/21 18:30:59;;;;;;;6.05;3.45;;;;;;;21.31;63.14;101212.94;10593714;28;20032;-74
2022/08/21 18:36:01;;;;;;;9.70;3.33;;;;;;;21.24;63.43;101207.91;10575007;28;20532;-74
2022/08/21 18:41:04;;;;;;;9.25;3.42;;;;;;;21.18;63.76;101203.66;10611536;28;20631;-74
2022/08/21 18:46:06;;;;;;;8.98;3.55;;;;;;;21.11;63.93;101192.19;10610924;28;20493;-74
2022/08/21 18:51:10;;;;;;;9.38;3.63;;;;;;;21.08;63.63;101193.69;10576072;28;20066;-74
2022/08/21 18:56:14;;;;;;;12.52;3.67;;;;;;;21.03;63.64;101198.66;10611104;28;20391;-74
2022/08/21 19:01:16;;;;;;;3.92;2.63;;;;;;;20.99;63.53;101198.50;10594093;28;20513;-74
2022/08/21 19:06:18;;;;;;;7.22;3.45;;;;;;;20.96;63.21;101192.78;10601736;28;20032;-74
2022/08/21 19:11:23;;;;;;;8.27;3.80;;;;;;;20.95;62.96;101191.97;10607313;28;20109;-74
2022/08/21 19:16:25;;;;;;;6.47;3.45;;;;;;;21.03;63.28;101185.53;10584676;28;20536;-73
2022/08/21 19:21:28;;;;;;;7.60;3.40;;;;;;;21.11;62.39;101186.63;10584081;28;20145;-76
2022/08/21 19:26:32;;;;;;;4.93;3.35;;;;;;;21.14;61.76;101179.53;10566029;28;20043;-75
2022/08/21 19:31:40;;;;;;;10.90;3.85;;;;;;;21.15;61.68;101168.03;10606146;28;20032;-76
2022/08/21 19:36:43;;;;;;;5.43;2.63;;;;;;;21.19;60.42;101166.22;10596782;28;20050;-77
2022/08/21 19:41:50;;;;;;;4.60;2.70;;;;;;;21.25;60.09;101172.44;10614961;28;20051;-76
2022/08/21 19:46:53;;;;;;;6.57;3.15;;;;;;;21.28;59.38;101166.97;10614545;28;20044;-76
2022/08/21 19:51:55;;;;;;;11.27;2.88;;;;;;;21.36;59.30;101168.09;10605062;28;20039;-76
2022/08/21 19:57:01;;;;;;;6.68;2.67;;;;;;;21.34;58.42;101170.38;10591344;28;20529;-74
2022/08/21 20:02:04;;;;;;;9.82;3.65;;;;;;;21.39;58.51;101178.56;10586735;28;20139;-73
2022/08/21 20:07:06;;;;;;;8.57;3.00;;;;;;;21.39;57.85;101172.97;10599512;28;20050;-73
2022/08/21 20:12:11;;;;;;;6.93;3.03;;;;;;;21.35;57.90;101161.69;10609689;28;20520;-73
2022/08/21 20:17:17;;;;;;;5.03;2.78;;;;;;;21.33;58.60;101158.38;10600763;27;20421;-71
2022/08/21 20:22:19;;;;;;;7.22;3.30;;;;;;;21.43;58.15;101150.78;10611231;28;20040;-71
2022/08/21 20:27:24;;;;;;;5.22;3.30;;;;;;;21.34;57.50;101154.44;10607645;28;20067;-74
2022/08/21 20:32:26;;;;;;;5.75;2.63;;;;;;;21.45;57.35;101148.44;10584583;27;20039;-74
2022/08/21 20:37:29;;;;;;;6.75;2.72;;;;;;;21.43;57.42;101145.19;10587113;28;20039;-74
2022/08/21 20:42:31;;;;;;;7.15;2.88;;;;;;;21.42;57.26;101146.34;10587674;28;20044;-74
2022/08/21 20:47:34;;;;;;;6.47;2.95;;;;;;;21.33;56.78;101147.22;10593629;28;20410;-75
2022/08/21 20:52:37;;;;;;;7.93;2.75;;;;;;;21.26;57.58;101143.34;10591682;28;20047;-75
2022/08/21 20:58:03;;;;;;;8.77;3.08;;;;;;;21.20;57.24;101141.91;10600165;27;20043;-75
2022/08/21 21:03:13;;;;;;;8.43;3.45;;;;;;;21.16;56.49;101140.94;10579263;28;20063;-75
2022/08/21 21:08:28;;;;;;;8.82;3.20;;;;;;;21.22;56.03;101145.16;10558712;28;20050;-75
2022/08/21 21:13:40;;;;;;;8.27;3.38;;;;;;;21.26;56.33;101135.81;10580401;28;20044;-74
2022/08/21 21:18:54;;;;;;;10.00;4.35;;;;;;;21.18;55.96;101133.88;10547548;28;20414;-75
2022/08/21 21:24:03;;;;;;;7.65;4.20;;;;;;;21.02;55.98;101130.06;10527399;28;20040;-74
2022/08/21 21:29:16;;;;;;;8.70;3.95;;;;;;;20.91;56.14;101128.81;10560723;28;20036;-74
2022/08/21 21:34:19;;;;;;;9.15;4.28;;;;;;;20.76;56.56;101128.25;10544372;28;20051;-74
2022/08/21 21:39:36;;;;;;;7.20;4.18;;;;;;;20.60;56.46;101130.00;10567532;28;20071;-74
2022/08/21 21:45:00;;;;;;;6.50;4.43;;;;;;;20.49;57.40;101133.53;10548052;28;20036;-74
2022/08/21 21:50:03;;;;;;;7.38;4.22;;;;;;;20.35;57.39;101123.38;10552965;28;20410;-73
2022/08/21 21:55:25;;;;;;;9.30;4.60;;;;;;;20.26;56.78;101121.78;10558051;28;20052;-75
2022/08/21 22:00:32;;;;;;;7.53;4.22;;;;;;;20.31;56.86;101116.03;10513130;28;20032;-74
2022/08/21 22:05:59;;;;;;;6.78;4.35;;;;;;;20.41;56.40;101116.50;10506397;28;20035;-74
2022/08/21 22:11:21;;;;;;;;;;;;;;;20.45;55.32;101120.22;10548657;28;20040;-74
2022/08/21 22:16:23;;;;;;;8.93;4.35;;;;;;;20.42;54.97;101112.53;10581964;28;20409;-73
2022/08/21 22:21:30;;;;;;;9.18;4.47;;;;;;;20.39;54.18;101106.81;10604623;28;20044;-73
2022/08/21 22:26:39;;;;;;;11.57;4.53;;;;;;;20.42;54.76;101101.41;10588910;28;20505;-73
2022/08/21 22:31:42;;;;;;;12.75;4.88;;;;;;;20.52;53.77;101105.78;10587400;28;20036;-73
2022/08/21 22:36:54;;;;;;;12.10;4.80;;;;;;;20.42;53.47;101106.16;10603814;28;20051;-72
2022/08/21 22:42:04;;;;;;;11.88;5.75;;;;;;;20.33;53.07;101108.97;10608788;28;20082;-75
2022/08/21 22:47:06;;;;;;;10.05;5.70;;;;;;;20.20;53.39;101101.66;10594024;28;20397;-74
2022/08/21 22:52:21;;;;;;;9.90;5.07;;;;;;;20.08;54.28;101091.19;10609239;28;20048;-73
2022/08/21 22:57:31;;;;;;;10.50;5.63;;;;;;;19.98;54.09;101091.59;10591966;28;20478;-74
2022/08/21 23:02:49;;;;;;;9.13;5.20;;;;;;;19.92;54.39;101089.31;10589278;28;20032;-74
2022/08/21 23:07:51;;;;;;;15.05;5.60;;;;;;;19.86;54.44;101088.69;10579759;28;20042;-75
2022/08/21 23:13:04;;;;;;;7.38;5.22;;;;;;;19.85;54.62;101092.59;10577688;28;20036;-73
2022/08/21 23:18:24;;;;;;;9.32;4.80;;;;;;;19.82;54.72;101087.72;10602967;28;20501;-74
2022/08/21 23:23:29;;;;;;;8.32;5.65;;;;;;;19.81;54.15;101091.66;10623367;27;20044;-74
2022/08/21 23:28:46;;;;;;;8.25;5.03;;;;;;;19.95;54.44;101075.50;10595486;28;20040;-73